Time;durP1;ratioP1;P1;durP2;ratioP2;P2;SDS_P1;SDS_P2;PMS_P1;PMS_P2;Temp;Humidity;BMP_temperature;BMP_pressure;BME280_temperature;BME280_humidity;BME280_pressure;Samples;Min_cycle;Max_cycle;Signal;HPM_P1;HPM_P2
2022/08/05 00:01:19;;;;;;;7.35;5.07;;;18.50;99.90;;;;;;5049564;28;20029;-64
2022/08/05 00:03:48;;;;;;;10.32;5.30;;;18.50;99.90;;;;;;5054551;28;20029;-64
2022/08/05 00:06:14;;;;;;;13.15;5.65;;;18.50;99.90;;;;;;5057217;28;20051;-64
2022/08/05 00:08:41;;;;;;;10.05;5.30;;;18.50;99.90;;;;;;5058867;28;20028;-64
2022/08/05 00:11:10;;;;;;;12.82;6.03;;;18.50;99.90;;;;;;5037490;28;20033;-64
2022/08/05 00:13:37;;;;;;;14.95;6.55;;;18.50;99.90;;;;;;5052671;28;20415;-64
2022/08/05 00:16:03;;;;;;;10.98;6.35;;;18.60;99.90;;;;;;5048764;28;20120;-64
2022/08/05 00:18:29;;;;;;;9.20;5.60;;;18.70;99.90;;;;;;5050587;28;20481;-64
2022/08/05 00:20:55;;;;;;;9.52;5.78;;;18.70;99.90;;;;;;5051609;28;20121;-64
2022/08/05 00:23:21;;;;;;;9.00;5.63;;;18.70;99.90;;;;;;5063598;28;20036;-64
2022/08/05 00:25:47;;;;;;;8.65;5.60;;;18.70;99.90;;;;;;5055812;28;20032;-64
2022/08/05 00:28:13;;;;;;;9.45;5.90;;;18.70;99.90;;;;;;5052115;28;20036;-64
2022/08/05 00:30:39;;;;;;;13.32;5.70;;;18.70;99.90;;;;;;5060399;28;20033;-64
2022/08/05 00:33:05;;;;;;;11.20;6.40;;;18.70;99.90;;;;;;5053235;28;20036;-64
2022/08/05 00:35:30;;;;;;;9.95;5.47;;;18.60;99.90;;;;;;5052832;28;20538;-64
2022/08/05 00:37:56;;;;;;;8.95;5.47;;;18.70;99.90;;;;;;5055225;28;20068;-64
2022/08/05 00:40:24;;;;;;;13.45;6.07;;;18.60;99.90;;;;;;5060965;28;20047;-65
2022/08/05 00:42:50;;;;;;;10.50;5.75;;;18.70;99.90;;;;;;5046990;28;20478;-65
2022/08/05 00:45:16;;;;;;;13.07;6.50;;;18.60;99.90;;;;;;5051683;28;20064;-64
2022/08/05 00:47:41;;;;;;;11.35;5.82;;;18.60;99.90;;;;;;5054757;28;20391;-65
2022/08/05 00:50:08;;;;;;;11.38;5.95;;;18.60;99.90;;;;;;5058088;28;20033;-64
2022/08/05 00:52:33;;;;;;;9.07;5.70;;;18.50;99.90;;;;;;5053010;28;20029;-65
2022/08/05 00:54:59;;;;;;;7.55;5.30;;;18.50;99.90;;;;;;5055193;28;20813;-65
2022/08/05 00:57:25;;;;;;;8.55;5.95;;;18.60;99.90;;;;;;5067152;28;20040;-65
2022/08/05 00:59:51;;;;;;;10.27;5.70;;;18.60;99.90;;;;;;5055167;28;20613;-63
2022/08/05 01:02:16;;;;;;;12.30;6.28;;;18.60;99.90;;;;;;5054904;28;20033;-63
2022/08/05 01:04:42;;;;;;;10.13;6.03;;;18.50;99.90;;;;;;5063955;28;20162;-63
2022/08/05 01:07:08;;;;;;;8.40;5.57;;;18.50;99.90;;;;;;5059688;28;20037;-63
2022/08/05 01:09:33;;;;;;;11.25;6.30;;;18.50;99.90;;;;;;5056173;28;20479;-63
2022/08/05 01:12:05;;;;;;;10.02;6.63;;;18.50;99.90;;;;;;5058412;28;20033;-63
2022/08/05 01:14:39;;;;;;;10.50;6.97;;;18.50;99.90;;;;;;5065110;28;20033;-64
2022/08/05 01:17:06;;;;;;;13.20;6.18;;;18.50;99.90;;;;;;5051055;28;20098;-64
2022/08/05 01:19:42;;;;;;;10.70;6.43;;;18.50;99.90;;;;;;5056367;28;20033;-65
2022/08/05 01:22:17;;;;;;;11.32;6.60;;;18.50;99.90;;;;;;5066013;28;20060;-65
2022/08/05 01:24:48;;;;;;;10.02;5.80;;;18.50;99.90;;;;;;5053210;28;20124;-65
2022/08/05 01:27:42;;;;;;;8.23;6.00;;;18.50;99.90;;;;;;5054626;28;20064;-64
2022/08/05 01:30:08;;;;;;;8.68;6.25;;;18.50;99.90;;;;;;5045092;28;20043;-64
2022/08/05 01:32:37;;;;;;;10.82;6.20;;;18.40;99.90;;;;;;5052002;28;20033;-64
2022/08/05 01:35:10;;;;;;;10.23;6.72;;;18.50;99.90;;;;;;5061646;28;20036;-64
2022/08/05 01:37:42;;;;;;;10.85;6.72;;;18.50;99.90;;;;;;5056706;28;20041;-64
2022/08/05 01:40:09;;;;;;;12.02;6.40;;;18.50;99.90;;;;;;5056231;28;20045;-64
2022/08/05 01:42:36;;;;;;;10.40;6.60;;;18.50;99.90;;;;;;5054176;28;20525;-63
2022/08/05 01:45:05;;;;;;;8.13;5.30;;;18.50;99.90;;;;;;5054015;28;20592;-64
2022/08/05 01:47:33;;;;;;;6.82;5.38;;;18.50;99.90;;;;;;5068586;28;20079;-64
2022/08/05 01:50:01;;;;;;;7.88;5.63;;;18.60;99.90;;;;;;5048570;28;20452;-64
2022/08/05 01:52:27;;;;;;;7.60;5.95;;;18.50;99.90;;;;;;5053998;28;20052;-64
2022/08/05 01:54:58;;;;;;;14.32;6.57;;;18.50;99.90;;;;;;5064456;28;20090;-64
2022/08/05 01:57:26;;;;;;;9.05;5.72;;;18.50;99.90;;;;;;5050044;28;20037;-64
2022/08/05 01:59:56;;;;;;;11.88;5.80;;;18.60;99.90;;;;;;5055265;28;20563;-64
2022/08/05 02:02:23;;;;;;;9.38;6.28;;;18.60;99.90;;;;;;5059420;28;20040;-64
2022/08/05 02:04:51;;;;;;;9.93;6.43;;;18.50;99.90;;;;;;5059375;28;20029;-64
2022/08/05 02:07:20;;;;;;;12.88;6.90;;;18.50;99.90;;;;;;5056454;28;20487;-64
2022/08/05 02:09:46;;;;;;;12.70;6.40;;;18.50;99.90;;;;;;5057179;28;20032;-64
2022/08/05 02:12:23;;;;;;;10.15;6.30;;;18.50;99.90;;;;;;5062987;28;20506;-63
2022/08/05 02:14:59;;;;;;;12.48;6.70;;;18.50;99.90;;;;;;5057982;28;20671;-64
2022/08/05 02:17:30;;;;;;;10.45;6.65;;;18.50;99.90;;;;;;5054509;28;20047;-64
2022/08/05 02:19:59;;;;;;;;;;;18.50;99.90;;;;;;5067155;28;20048;-64
2022/08/05 02:22:37;;;;;;;12.18;6.30;;;18.50;99.90;;;;;;5050281;28;20013;-64
2022/08/05 02:25:24;;;;;;;12.80;6.68;;;18.50;99.90;;;;;;5053497;28;20079;-64
2022/08/05 02:27:50;;;;;;;11.57;6.47;;;18.50;99.90;;;;;;5068821;28;20075;-64
2022/08/05 02:30:17;;;;;;;13.38;6.25;;;18.50;99.90;;;;;;5062243;28;20076;-64
2022/08/05 02:32:48;;;;;;;11.63;6.38;;;18.50;99.90;;;;;;5055753;28;20057;-64
2022/08/05 02:35:18;;;;;;;11.70;6.50;;;18.50;99.90;;;;;;5053831;28;20033;-64
2022/08/05 02:37:45;;;;;;;10.37;6.30;;;18.40;99.90;;;;;;5067122;28;20592;-64
2022/08/05 02:40:11;;;;;;;12.65;6.10;;;18.40;99.90;;;;;;5055007;28;20033;-64
2022/08/05 02:42:38;;;;;;;9.57;5.55;;;18.40;99.90;;;;;;5053058;28;20495;-64
2022/08/05 02:45:07;;;;;;;8.63;5.80;;;18.40;99.90;;;;;;5046617;28;20047;-63
2022/08/05 02:47:35;;;;;;;9.32;5.50;;;18.40;99.90;;;;;;5051258;28;20870;-64
2022/08/05 02:50:03;;;;;;;9.23;5.65;;;18.40;99.90;;;;;;5053851;28;20032;-64
2022/08/05 02:52:30;;;;;;;11.30;6.03;;;18.40;99.90;;;;;;5059946;28;20047;-64
2022/08/05 02:54:58;;;;;;;10.27;6.05;;;18.40;99.90;;;;;;5053197;28;20040;-64
2022/08/05 02:57:24;;;;;;;10.68;6.07;;;18.30;99.90;;;;;;5056471;28;20098;-64
2022/08/05 02:59:50;;;;;;;10.50;5.78;;;18.30;99.90;;;;;;5038324;28;20422;-64
2022/08/05 03:02:27;;;;;;;14.10;6.32;;;18.20;99.90;;;;;;5061361;28;20048;-64
2022/08/05 03:04:56;;;;;;;13.75;6.22;;;18.20;99.90;;;;;;5050843;28;20076;-64
2022/08/05 03:07:22;;;;;;;9.38;6.18;;;18.20;99.90;;;;;;5053041;28;20029;-64
2022/08/05 03:09:48;;;;;;;9.90;5.93;;;18.20;99.90;;;;;;5054431;28;20133;-64
2022/08/05 03:12:37;;;;;;;8.90;5.70;;;18.20;99.90;;;;;;5060038;28;20029;-64
2022/08/05 03:15:05;;;;;;;8.63;5.65;;;18.20;99.90;;;;;;5051689;28;20063;-64
2022/08/05 03:17:31;;;;;;;10.45;5.70;;;18.20;99.90;;;;;;5035967;28;20048;-64
2022/08/05 03:19:57;;;;;;;8.68;5.63;;;18.20;99.90;;;;;;5062169;28;20041;-64
2022/08/05 03:22:23;;;;;;;9.55;5.68;;;18.10;99.90;;;;;;5051910;28;20044;-64
2022/08/05 03:24:50;;;;;;;13.32;5.80;;;18.10;99.90;;;;;;5052617;28;20044;-64
2022/08/05 03:27:16;;;;;;;8.60;5.72;;;18.10;99.90;;;;;;5061722;28;20044;-64
2022/08/05 03:29:42;;;;;;;9.63;5.93;;;18.10;99.90;;;;;;5054547;28;20123;-64
2022/08/05 03:32:09;;;;;;;9.55;5.68;;;18.10;99.90;;;;;;5049454;28;20040;-64
2022/08/05 03:34:35;;;;;;;7.45;5.30;;;18.10;99.90;;;;;;5058432;28;20029;-64
2022/08/05 03:37:02;;;;;;;10.07;5.70;;;18.10;99.90;;;;;;5054321;28;20456;-64
2022/08/05 03:39:28;;;;;;;10.20;5.60;;;18.00;99.90;;;;;;5034595;28;20128;-64
2022/08/05 03:41:57;;;;;;;9.38;5.70;;;18.00;99.90;;;;;;5055789;28;20124;-64
2022/08/05 03:44:23;;;;;;;11.93;5.80;;;18.00;99.90;;;;;;5055426;28;20033;-64
2022/08/05 03:46:49;;;;;;;10.75;6.07;;;18.00;99.90;;;;;;5063803;28;20521;-64
2022/08/05 03:49:15;;;;;;;12.60;6.40;;;18.00;99.90;;;;;;5052516;28;20033;-64
2022/08/05 03:51:52;;;;;;;11.38;5.95;;;18.00;99.90;;;;;;5062490;28;20069;-64
2022/08/05 03:54:28;;;;;;;9.48;5.55;;;18.00;99.90;;;;;;5051233;28;20533;-64
2022/08/05 03:56:54;;;;;;;9.55;5.10;;;18.00;99.90;;;;;;5050688;28;20049;-64
2022/08/05 03:59:28;;;;;;;9.98;5.32;;;18.00;99.90;;;;;;5066244;28;20041;-64
2022/08/05 04:01:55;;;;;;;8.35;5.20;;;18.00;99.90;;;;;;5038812;28;20109;-64
2022/08/05 04:04:22;;;;;;;10.30;6.07;;;18.00;99.90;;;;;;5046282;28;20059;-64
2022/08/05 04:06:49;;;;;;;8.27;5.20;;;17.90;99.90;;;;;;5049695;28;20041;-64
2022/08/05 04:09:16;;;;;;;10.32;5.32;;;17.90;99.90;;;;;;5061778;28;20050;-64
2022/08/05 04:11:42;;;;;;;10.65;5.68;;;17.90;99.90;;;;;;5051028;28;20047;-64
2022/08/05 04:14:09;;;;;;;10.65;5.65;;;17.90;99.90;;;;;;5052195;28;20037;-64
2022/08/05 04:16:34;;;;;;;9.27;6.07;;;17.90;99.90;;;;;;5057071;28;20071;-64
2022/08/05 04:19:01;;;;;;;9.40;5.50;;;17.90;99.90;;;;;;5057347;28;20041;-64
2022/08/05 04:21:27;;;;;;;9.95;5.43;;;17.90;99.90;;;;;;5051873;28;20029;-64
2022/08/05 04:23:53;;;;;;;9.05;5.90;;;17.90;99.90;;;;;;5047838;28;20036;-64
2022/08/05 04:26:19;;;;;;;9.40;5.70;;;17.80;99.90;;;;;;5063655;28;20032;-63
2022/08/05 04:28:44;;;;;;;12.80;5.95;;;17.80;99.90;;;;;;5046201;28;20068;-64
2022/08/05 04:31:10;;;;;;;10.82;6.07;;;17.80;99.90;;;;;;5055553;28;20036;-64
2022/08/05 04:33:36;;;;;;;9.30;5.75;;;17.80;99.90;;;;;;5069801;28;20068;-64
2022/08/05 04:36:02;;;;;;;12.35;5.90;;;17.90;99.90;;;;;;5055654;28;20068;-64
2022/08/05 04:38:27;;;;;;;8.45;5.65;;;17.90;99.90;;;;;;5047950;28;20120;-64
2022/08/05 04:40:53;;;;;;;8.85;5.55;;;17.90;99.90;;;;;;5055269;28;20523;-64
2022/08/05 04:43:18;;;;;;;8.80;5.70;;;17.90;99.90;;;;;;5062110;28;20072;-63
2022/08/05 04:45:44;;;;;;;9.77;5.60;;;17.80;99.90;;;;;;5057870;28;20032;-64
2022/08/05 04:48:12;;;;;;;11.20;5.60;;;17.80;99.90;;;;;;5054852;28;20041;-64
2022/08/05 04:50:46;;;;;;;8.05;5.10;;;17.80;99.90;;;;;;5061121;28;20151;-63
2022/08/05 04:53:14;;;;;;;8.80;5.13;;;17.80;99.90;;;;;;5049521;28;20029;-63
2022/08/05 04:55:41;;;;;;;7.57;5.40;;;17.80;99.90;;;;;;5057976;28;20033;-64
2022/08/05 04:58:09;;;;;;;8.65;4.68;;;17.80;99.90;;;;;;5066516;28;20063;-64
2022/08/05 05:00:36;;;;;;;10.27;5.13;;;17.70;99.90;;;;;;5050541;28;20044;-64
2022/08/05 05:03:03;;;;;;;10.18;5.43;;;17.80;99.90;;;;;;5053309;28;20403;-64
2022/08/05 05:05:29;;;;;;;8.02;5.10;;;17.80;99.90;;;;;;5056331;28;20056;-64
2022/08/05 05:08:06;;;;;;;13.43;6.20;;;17.80;99.90;;;;;;5066298;28;20041;-64
2022/08/05 05:10:37;;;;;;;6.22;5.03;;;17.80;99.90;;;;;;5055441;28;20044;-64
2022/08/05 05:13:03;;;;;;;8.75;4.88;;;17.80;99.90;;;;;;5054285;28;20059;-64
2022/08/05 05:15:28;;;;;;;9.98;5.43;;;17.80;99.90;;;;;;5066696;28;20790;-63
2022/08/05 05:17:54;;;;;;;10.38;5.47;;;17.80;99.90;;;;;;5053060;28;20044;-64
2022/08/05 05:20:19;;;;;;;9.50;5.57;;;17.90;99.90;;;;;;5054627;28;20422;-64
2022/08/05 05:22:46;;;;;;;10.65;5.32;;;17.90;99.90;;;;;;5063847;28;20036;-64
2022/08/05 05:25:13;;;;;;;9.25;5.25;;;17.90;99.90;;;;;;5054157;28;20041;-64
2022/08/05 05:27:39;;;;;;;8.88;5.07;;;17.90;99.90;;;;;;5058097;28;20052;-64
2022/08/05 05:30:05;;;;;;;8.07;5.15;;;17.90;99.90;;;;;;5058169;28;20402;-64
2022/08/05 05:32:31;;;;;;;9.07;5.63;;;17.90;99.90;;;;;;5061224;28;20106;-64
2022/08/05 05:34:57;;;;;;;7.03;5.40;;;17.90;99.90;;;;;;5049002;28;20483;-64
2022/08/05 05:37:22;;;;;;;10.63;5.47;;;18.00;99.90;;;;;;5051439;28;20492;-64
2022/08/05 05:39:48;;;;;;;8.45;5.43;;;18.00;99.90;;;;;;5052327;28;20495;-65
2022/08/05 05:42:14;;;;;;;10.43;5.38;;;17.90;99.90;;;;;;5044230;28;20064;-65
2022/08/05 05:44:39;;;;;;;9.10;5.03;;;18.00;99.90;;;;;;5051962;28;20471;-64
2022/08/05 05:47:05;;;;;;;8.98;5.75;;;18.00;99.90;;;;;;5038202;28;20095;-65
2022/08/05 05:49:31;;;;;;;11.05;5.93;;;17.90;99.90;;;;;;5026713;28;20044;-64
2022/08/05 05:51:57;;;;;;;10.70;5.60;;;17.90;99.90;;;;;;5053906;28;20037;-64
2022/08/05 05:54:22;;;;;;;7.78;5.40;;;17.90;99.90;;;;;;5051816;28;20033;-64
2022/08/05 05:56:48;;;;;;;12.80;5.70;;;17.90;99.90;;;;;;5051886;28;20596;-64
2022/08/05 05:59:14;;;;;;;8.73;5.85;;;17.90;99.90;;;;;;5049223;28;20104;-65
2022/08/05 06:01:40;;;;;;;9.60;5.70;;;17.90;99.90;;;;;;5051218;28;20095;-64
2022/08/05 06:04:08;;;;;;;9.40;5.28;;;17.90;99.90;;;;;;5052089;28;20036;-64
2022/08/05 06:06:34;;;;;;;8.65;5.43;;;17.90;99.90;;;;;;5044077;28;20377;-64
2022/08/05 06:09:01;;;;;;;8.38;5.82;;;18.00;99.90;;;;;;5046729;28;20065;-64
2022/08/05 06:11:27;;;;;;;7.45;5.47;;;18.00;99.90;;;;;;5043960;28;21033;-64
2022/08/05 06:13:53;;;;;;;11.48;5.70;;;18.00;99.90;;;;;;5051505;28;20498;-65
2022/08/05 06:16:18;;;;;;;10.77;5.68;;;18.10;99.90;;;;;;5051501;28;20487;-64
2022/08/05 06:18:44;;;;;;;8.55;6.00;;;18.20;99.90;;;;;;5044797;28;20045;-64
2022/08/05 06:21:10;;;;;;;10.40;6.57;;;18.30;99.90;;;;;;5041077;28;20029;-64
2022/08/05 06:23:35;;;;;;;10.68;6.30;;;18.40;99.90;;;;;;5046978;28;20025;-63
2022/08/05 06:26:01;;;;;;;9.82;6.10;;;18.40;99.90;;;;;;5048935;28;20514;-64
2022/08/05 06:28:27;;;;;;;11.65;5.97;;;18.40;99.90;;;;;;5047896;28;20053;-63
2022/08/05 06:30:53;;;;;;;9.00;5.93;;;18.40;99.90;;;;;;5050543;28;20044;-64
2022/08/05 06:33:18;;;;;;;7.07;5.43;;;18.40;99.90;;;;;;5051013;28;20376;-64
2022/08/05 06:35:44;;;;;;;10.68;5.85;;;18.40;99.90;;;;;;5046476;28;20033;-63
2022/08/05 06:38:09;;;;;;;9.10;5.50;;;18.50;99.90;;;;;;5054874;28;20032;-64
2022/08/05 06:40:35;;;;;;;8.65;5.97;;;18.50;99.90;;;;;;5052536;28;20426;-64
2022/08/05 06:43:01;;;;;;;11.35;6.22;;;18.50;99.90;;;;;;5050471;28;20461;-64
2022/08/05 06:45:26;;;;;;;9.07;5.78;;;18.50;99.90;;;;;;5050725;28;20441;-64
2022/08/05 06:47:52;;;;;;;10.32;5.63;;;18.50;99.90;;;;;;5051304;28;20083;-64
2022/08/05 06:50:17;;;;;;;8.43;5.75;;;18.60;99.90;;;;;;5051463;28;20483;-65
2022/08/05 06:52:43;;;;;;;8.10;5.82;;;18.60;99.90;;;;;;5053156;28;20126;-64
2022/08/05 06:55:09;;;;;;;7.82;5.70;;;18.60;99.90;;;;;;5050689;28;20112;-64
2022/08/05 06:57:34;;;;;;;10.35;6.15;;;18.70;99.90;;;;;;5040035;28;20511;-62
2022/08/05 07:00:02;;;;;;;8.27;5.93;;;18.70;99.90;;;;;;5046141;28;20579;-63
2022/08/05 07:02:28;;;;;;;9.85;5.40;;;18.70;99.90;;;;;;5032632;28;20044;-63
2022/08/05 07:04:53;;;;;;;10.30;5.28;;;18.70;99.90;;;;;;5047429;28;20549;-62
2022/08/05 07:07:19;;;;;;;9.88;6.18;;;18.80;99.90;;;;;;5053680;28;20040;-62
2022/08/05 07:09:45;;;;;;;10.52;5.45;;;18.80;99.90;;;;;;5052961;28;20033;-62
2022/08/05 07:16:48;;;;;;;11.38;6.00;;;18.90;99.90;;;;;;5050525;28;20040;-63
2022/08/05 07:17:40;;;;;;;10.98;5.57;;;19.10;99.90;;;;;;5049352;28;20037;-62
2022/08/05 07:20:06;;;;;;;15.23;5.65;;;19.20;99.90;;;;;;5055761;28;20112;-65
2022/08/05 07:22:31;;;;;;;9.25;5.07;;;19.30;99.90;;;;;;5049547;28;20040;-64
2022/08/05 07:24:59;;;;;;;11.43;5.57;;;19.40;99.90;;;;;;5050389;28;20660;-64
2022/08/05 07:27:24;;;;;;;10.98;4.97;;;19.60;99.90;;;;;;5050622;28;20045;-65
2022/08/05 07:29:50;;;;;;;11.07;5.50;;;19.70;99.90;;;;;;5049221;28;20060;-65
2022/08/05 07:32:15;;;;;;;10.15;5.00;;;19.80;99.90;;;;;;5047362;28;20044;-65
2022/08/05 07:34:41;;;;;;;7.82;4.72;;;19.80;99.90;;;;;;5049815;28;20025;-65
2022/08/05 07:37:07;;;;;;;10.18;4.28;;;19.80;99.90;;;;;;5050241;28;20095;-65
2022/08/05 07:39:33;;;;;;;7.40;4.13;;;19.80;99.90;;;;;;5048032;28;20037;-65
2022/08/05 07:41:58;;;;;;;9.18;4.00;;;19.80;99.90;;;;;;5049075;28;20572;-64
2022/08/05 07:44:24;;;;;;;7.85;4.00;;;19.80;99.90;;;;;;5050150;28;20032;-64
2022/08/05 07:46:49;;;;;;;9.30;4.47;;;19.80;99.90;;;;;;5047510;28;20034;-65
2022/08/05 07:49:16;;;;;;;5.53;3.83;;;19.90;99.90;;;;;;5050301;28;20112;-65
2022/08/05 07:51:41;;;;;;;5.78;3.58;;;19.90;99.90;;;;;;5049353;28;20075;-64
2022/08/05 07:54:07;;;;;;;8.25;3.53;;;19.90;99.90;;;;;;5046918;28;20071;-64
2022/08/05 07:56:33;;;;;;;7.15;3.60;;;20.00;99.90;;;;;;5059608;28;20044;-65
2022/08/05 07:58:59;;;;;;;6.05;3.38;;;20.00;99.90;;;;;;5049990;28;20036;-65
2022/08/05 08:01:26;;;;;;;4.65;3.28;;;20.00;99.90;;;;;;5034009;28;20558;-65
2022/08/05 08:03:52;;;;;;;5.47;3.80;;;20.10;99.90;;;;;;5030321;28;20048;-64
2022/08/05 08:06:17;;;;;;;5.40;3.40;;;20.20;99.90;;;;;;5053086;28;20055;-64
2022/08/05 08:08:43;;;;;;;4.20;2.85;;;20.30;99.90;;;;;;5057874;28;20048;-64
2022/08/05 08:11:09;;;;;;;6.88;2.80;;;20.30;99.90;;;;;;5053501;28;20033;-64
2022/08/05 08:13:34;;;;;;;4.22;3.05;;;20.50;99.90;;;;;;5031936;28;20037;-64
2022/08/05 08:16:00;;;;;;;6.85;3.20;;;20.70;99.90;;;;;;5059665;28;20033;-65
2022/08/05 08:18:26;;;;;;;4.47;3.20;;;20.80;99.90;;;;;;5053564;28;20068;-64
2022/08/05 08:20:52;;;;;;;5.68;3.03;;;20.80;99.90;;;;;;5050809;28;20044;-64
2022/08/05 08:23:17;;;;;;;7.00;3.10;;;20.80;99.90;;;;;;5053532;28;20118;-65
2022/08/05 08:25:44;;;;;;;4.60;3.10;;;20.80;99.90;;;;;;5053765;28;20087;-64
2022/08/05 08:28:10;;;;;;;4.85;3.42;;;20.70;99.90;;;;;;5053924;28;20033;-64
2022/08/05 08:30:35;;;;;;;6.57;3.00;;;20.60;99.90;;;;;;5051410;28;20036;-63
2022/08/05 08:33:07;;;;;;;4.68;3.25;;;20.60;99.90;;;;;;5052806;28;20037;-64
2022/08/05 08:35:33;;;;;;;8.15;3.00;;;20.70;99.90;;;;;;5053890;28;20076;-64
2022/08/05 08:37:58;;;;;;;4.72;2.90;;;20.80;99.90;;;;;;5061146;28;20477;-64
2022/08/05 08:40:24;;;;;;;4.90;3.15;;;20.90;99.90;;;;;;5056209;28;20033;-64
2022/08/05 08:42:51;;;;;;;6.82;3.15;;;21.00;99.90;;;;;;5053236;28;20041;-64
2022/08/05 08:45:20;;;;;;;5.20;3.10;;;21.10;99.90;;;;;;5053146;28;20052;-64
2022/08/05 08:47:48;;;;;;;4.80;3.13;;;21.10;99.90;;;;;;5055352;28;20041;-64
2022/08/05 08:50:15;;;;;;;5.97;3.28;;;21.10;99.90;;;;;;5053036;28;20459;-64
2022/08/05 08:52:44;;;;;;;4.78;3.72;;;21.20;99.90;;;;;;5053160;28;20487;-64
2022/08/05 08:55:10;;;;;;;4.55;3.15;;;21.20;99.90;;;;;;5050420;28;20036;-64
2022/08/05 08:57:36;;;;;;;4.85;2.67;;;21.20;99.90;;;;;;5052873;28;20437;-64
2022/08/05 09:00:03;;;;;;;4.20;2.70;;;21.20;99.90;;;;;;5053258;28;20505;-64
2022/08/05 09:02:29;;;;;;;4.88;2.30;;;21.20;99.90;;;;;;5050696;28;20136;-65
2022/08/05 09:04:54;;;;;;;2.83;2.20;;;21.10;99.90;;;;;;5050418;28;20121;-64
2022/08/05 09:07:20;;;;;;;5.15;2.30;;;21.10;99.90;;;;;;5052746;28;20167;-64
2022/08/05 09:09:46;;;;;;;2.55;2.10;;;21.20;99.90;;;;;;5051786;28;20033;-65
2022/08/05 09:12:11;;;;;;;4.10;2.15;;;21.20;99.90;;;;;;5051038;28;20543;-64
2022/08/05 09:14:38;;;;;;;4.60;2.08;;;21.20;99.90;;;;;;5052215;28;20029;-64
2022/08/05 09:17:09;;;;;;;5.22;2.10;;;21.20;99.90;;;;;;5052617;28;20098;-65
2022/08/05 09:19:35;;;;;;;3.88;2.10;;;21.20;99.90;;;;;;5050730;28;20491;-64
2022/08/05 09:22:01;;;;;;;5.10;2.22;;;21.10;99.90;;;;;;5056019;28;20055;-64
2022/08/05 09:24:27;;;;;;;5.80;2.20;;;21.30;99.90;;;;;;5052684;28;20071;-64
2022/08/05 09:26:57;;;;;;;2.92;2.00;;;21.50;99.90;;;;;;5049825;28;20090;-64
2022/08/05 09:29:44;;;;;;;3.60;1.90;;;21.80;99.90;;;;;;5052017;28;20029;-64
2022/08/05 09:32:10;;;;;;;2.58;1.90;;;22.00;99.90;;;;;;5052019;28;20041;-64
2022/08/05 09:35:10;;;;;;;2.70;1.85;;;22.00;99.90;;;;;;5052402;28;20037;-64
2022/08/05 09:37:36;;;;;;;2.90;1.70;;;22.00;99.90;;;;;;5037588;28;20049;-65
2022/08/05 09:40:02;;;;;;;5.55;1.92;;;22.00;99.90;;;;;;5052503;28;20056;-64
2022/08/05 09:42:38;;;;;;;6.55;2.08;;;21.80;99.90;;;;;;5040764;28;20041;-64
2022/08/05 09:45:08;;;;;;;3.45;1.90;;;21.80;99.90;;;;;;5054374;28;20549;-64
2022/08/05 09:47:39;;;;;;;3.30;1.73;;;21.60;99.90;;;;;;5047597;28;20033;-64
2022/08/05 09:50:05;;;;;;;1.83;1.50;;;21.50;99.90;;;;;;5057630;28;20045;-64
2022/08/05 09:52:34;;;;;;;3.40;1.90;;;21.60;99.90;;;;;;5051108;28;20037;-65
2022/08/05 09:55:08;;;;;;;4.13;1.55;;;21.60;99.90;;;;;;5052071;28;20041;-65
2022/08/05 09:57:38;;;;;;;2.90;1.60;;;21.70;99.90;;;;;;5041659;28;20377;-65
2022/08/05 10:00:11;;;;;;;2.35;1.60;;;21.80;99.90;;;;;;5046735;28;20098;-64
2022/08/05 10:02:44;;;;;;;2.95;1.55;;;21.90;99.90;;;;;;5046954;28;20089;-64
2022/08/05 10:05:16;;;;;;;3.10;1.40;;;21.90;97.60;;;;;;5043591;28;20033;-64
2022/08/05 10:07:57;;;;;;;2.28;1.40;;;22.00;99.90;;;;;;5051905;28;20044;-63
2022/08/05 10:10:25;;;;;;;1.98;1.33;;;22.00;98.00;;;;;;5047688;28;20452;-65
2022/08/05 10:12:56;;;;;;;2.88;1.30;;;21.80;97.60;;;;;;5049057;28;20133;-65
2022/08/05 10:15:28;;;;;;;3.53;1.40;;;21.80;98.20;;;;;;5051488;28;20540;-64
2022/08/05 10:18:07;;;;;;;3.42;1.38;;;22.00;97.50;;;;;;5055998;28;20040;-65
2022/08/05 10:20:36;;;;;;;3.45;1.30;;;22.10;96.70;;;;;;5051131;28;20108;-64
2022/08/05 10:23:02;;;;;;;2.63;1.52;;;22.20;98.20;;;;;;5051051;28;20433;-64
2022/08/05 10:25:28;;;;;;;4.85;1.30;;;22.20;98.00;;;;;;5051555;28;20450;-64
2022/08/05 10:27:54;;;;;;;1.42;1.15;;;22.30;96.60;;;;;;5028465;28;20576;-64
2022/08/05 10:30:20;;;;;;;1.50;1.20;;;22.10;95.60;;;;;;5051238;28;20037;-64
2022/08/05 10:32:48;;;;;;;2.78;1.20;;;21.80;95.40;;;;;;5056295;28;20483;-65
2022/08/05 10:35:14;;;;;;;1.65;1.25;;;21.80;96.20;;;;;;5059074;28;20029;-64
2022/08/05 10:37:41;;;;;;;1.67;1.10;;;22.10;95.30;;;;;;5054739;28;20076;-65
2022/08/05 10:40:19;;;;;;;2.53;0.90;;;22.20;91.80;;;;;;5044347;28;20491;-65
2022/08/05 10:42:49;;;;;;;3.08;1.35;;;21.90;89.50;;;;;;5042008;28;20037;-65
2022/08/05 10:45:16;;;;;;;2.78;1.30;;;21.90;92.90;;;;;;5051331;28;20041;-64
2022/08/05 10:47:43;;;;;;;2.17;1.15;;;22.00;93.60;;;;;;5051021;28;20638;-64
2022/08/05 10:50:14;;;;;;;1.63;1.17;;;21.90;92.60;;;;;;5049043;28;20028;-64
2022/08/05 10:52:51;;;;;;;2.17;0.95;;;21.90;93.60;;;;;;5039059;28;20037;-64
2022/08/05 10:55:17;;;;;;;2.72;1.20;;;21.90;91.90;;;;;;5044026;28;20033;-64
2022/08/05 10:57:44;;;;;;;3.10;1.00;;;22.10;91.50;;;;;;5051207;28;20037;-64
2022/08/05 11:00:12;;;;;;;1.95;1.25;;;22.20;91.30;;;;;;5055701;28;20059;-64
2022/08/05 11:02:37;;;;;;;1.67;1.00;;;22.20;92.20;;;;;;5050217;28;20037;-64
2022/08/05 11:05:07;;;;;;;1.60;1.00;;;22.40;92.20;;;;;;5050558;28;20132;-64
2022/08/05 11:07:33;;;;;;;2.55;1.08;;;22.40;91.10;;;;;;5049911;28;20043;-64
2022/08/05 11:10:01;;;;;;;1.80;0.98;;;22.40;91.60;;;;;;5052697;28;20120;-64
2022/08/05 11:12:37;;;;;;;0.80;0.80;;;22.40;90.90;;;;;;5050130;28;20116;-64
2022/08/05 11:15:15;;;;;;;4.13;1.10;;;22.50;90.60;;;;;;5045815;28;20044;-65
2022/08/05 11:17:51;;;;;;;3.25;0.90;;;22.60;89.30;;;;;;5042981;28;20067;-65
2022/08/05 11:20:37;;;;;;;3.67;0.98;;;22.50;90.70;;;;;;5058578;28;20102;-65
2022/08/05 11:23:26;;;;;;;4.15;0.90;;;22.70;88.20;;;;;;5048504;28;20048;-64
2022/08/05 11:26:05;;;;;;;1.17;0.80;;;22.70;81.70;;;;;;5047066;28;20048;-64
2022/08/05 11:28:33;;;;;;;2.45;0.80;;;22.60;81.80;;;;;;5050616;28;20039;-64
2022/08/05 11:31:02;;;;;;;2.05;0.90;;;22.70;81.90;;;;;;5050104;28;20515;-65
2022/08/05 11:33:32;;;;;;;1.23;0.75;;;22.60;77.90;;;;;;5054733;28;20556;-65
2022/08/05 11:36:03;;;;;;;2.45;0.90;;;22.60;78.50;;;;;;5058256;28;20031;-65
2022/08/05 11:38:38;;;;;;;0.75;0.70;;;22.60;76.50;;;;;;5049874;28;20033;-65
2022/08/05 11:41:05;;;;;;;4.40;0.80;;;22.70;73.80;;;;;;5054663;28;20411;-65
2022/08/05 11:43:32;;;;;;;1.20;0.70;;;22.60;73.20;;;;;;5049919;28;20048;-65
2022/08/05 11:45:58;;;;;;;1.85;0.73;;;22.60;73.20;;;;;;5050254;28;20067;-66
2022/08/05 11:48:25;;;;;;;3.10;0.85;;;22.70;73.90;;;;;;5045537;28;20105;-66
2022/08/05 11:50:52;;;;;;;1.45;0.70;;;22.70;70.90;;;;;;5013173;28;20076;-65
2022/08/05 11:53:18;;;;;;;2.65;0.80;;;22.90;69.30;;;;;;5049739;28;20037;-66
2022/08/05 11:55:57;;;;;;;4.63;0.90;;;23.00;67.90;;;;;;5050332;28;20038;-65
2022/08/05 11:58:34;;;;;;;1.23;0.70;;;23.30;66.40;;;;;;5048268;28;20037;-65
2022/08/05 12:01:04;;;;;;;0.90;0.52;;;23.40;64.40;;;;;;5048207;28;20095;-66
2022/08/05 12:03:39;;;;;;;3.10;0.80;;;23.80;65.00;;;;;;5050021;28;20055;-65
2022/08/05 12:06:04;;;;;;;1.48;0.60;;;23.90;66.50;;;;;;5050404;28;20045;-65
2022/08/05 12:08:30;;;;;;;2.05;0.73;;;24.10;67.40;;;;;;5045198;28;20040;-65
2022/08/05 12:10:59;;;;;;;0.85;0.60;;;23.60;63.90;;;;;;5049560;28;20037;-65
2022/08/05 12:13:25;;;;;;;1.30;0.60;;;23.10;61.80;;;;;;5047517;28;20044;-65
2022/08/05 12:15:50;;;;;;;1.85;0.60;;;23.00;64.50;;;;;;5049381;28;20120;-65
2022/08/05 12:18:17;;;;;;;1.70;0.68;;;23.00;62.00;;;;;;5049585;28;20068;-65
2022/08/05 12:20:43;;;;;;;1.52;0.73;;;23.10;63.00;;;;;;5049101;28;20426;-66
2022/08/05 12:23:10;;;;;;;0.93;0.65;;;23.40;64.40;;;;;;5050092;28;20128;-66
2022/08/05 12:25:52;;;;;;;1.15;0.77;;;23.50;63.60;;;;;;5048187;28;20047;-65
2022/08/05 12:28:35;;;;;;;2.38;0.70;;;23.10;60.10;;;;;;5043751;28;20073;-65
2022/08/05 12:31:02;;;;;;;1.73;0.70;;;22.90;61.30;;;;;;5053517;28;20036;-65
2022/08/05 12:33:27;;;;;;;1.77;0.70;;;23.00;66.60;;;;;;5045803;28;20063;-65
2022/08/05 12:35:54;;;;;;;1.90;0.65;;;23.40;67.10;;;;;;5046349;28;20653;-65
2022/08/05 12:38:24;;;;;;;0.65;0.60;;;23.50;67.10;;;;;;5047788;28;20047;-65
2022/08/05 12:40:50;;;;;;;1.55;0.80;;;23.30;66.00;;;;;;5047980;28;20128;-65
2022/08/05 12:43:16;;;;;;;1.85;0.70;;;22.90;67.30;;;;;;5054996;28;20119;-66
2022/08/05 12:45:55;;;;;;;1.90;0.82;;;22.70;69.10;;;;;;5047001;28;20036;-65
2022/08/05 12:48:23;;;;;;;2.97;1.20;;;22.70;66.90;;;;;;5032515;28;20044;-65
2022/08/05 12:51:26;;;;;;;3.50;0.90;;;22.60;71.40;;;;;;5052190;28;20036;-65